Terminal Aerodrome Forecast
Issued by NWS Kansas City/Pleasant Hill, MO

Home | Current Version | Previous Version | Text Only | Print | Product List | Glossary On
Versions: 1 2 3 4 5 6 7 8 9 10 11 12 13 14 15
000
FTUS43 KEAX 050300 AAA
TAFMCI
TAF AMD
KMCI 050351Z 0504/0524 VRB05KT P6SM VCTS BKN050CB
      TEMPO 0504/0508 3SM -TSRA BKN030CB
     FM050900 18012KT P6SM SCT040=

USA.gov is the U.S. government's official web portal to all federal, state and local government web resources and services.